This is the latest recevied weather packets stored in our database for station/object YF9UAG-17. If no packets are shown the sender has not sent any weather packets the latest 10 day(s).
| Time | Temp. | Humidity | Pressure | Rain* | Wind** | Luminosity | Snow |
|---|---|---|---|---|---|---|---|
| 1777127850 | 30.56° C | 58% | 943 hPa | - | - | 0 W/m² | - |
| 1777126928 | 30.56° C | 58% | 942 hPa | - | - | 0 W/m² | - |
| 1777126006 | 30.56° C | 58% | 942 hPa | - | - | 0 W/m² | - |
| 1777125084 | 31.11° C | 57% | 943 hPa | - | - | 0 W/m² | - |
| 1777124162 | 31.11° C | 58% | 943 hPa | - | - | 0 W/m² | - |
| 1777123240 | 31.11° C | 58% | 943 hPa | - | - | 0 W/m² | - |
| 1777122318 | 30.56° C | 60% | 943 hPa | - | - | 0 W/m² | - |
| 1777121396 | 31.67° C | 58% | 942 hPa | - | - | 0 W/m² | - |
| 1777120474 | 31.67° C | 58% | 942 hPa | - | - | 0 W/m² | - |
| 1777119551 | 31.67° C | 58% | 942 hPa | - | - | 0 W/m² | - |
| 1777118629 | 32.22° C | 57% | 942 hPa | - | - | 0 W/m² | - |
| 1777117707 | 32.22° C | 57% | 942 hPa | - | - | 0 W/m² | - |
| 1777116785 | 32.22° C | 57% | 942 hPa | - | - | 0 W/m² | - |
| 1777115864 | 32.22° C | 56% | 941 hPa | - | - | 0 W/m² | - |
| 1777115571 | 32.22° C | 56% | 941 hPa | - | - | 0 W/m² | - |
| 1777114649 | 32.22° C | 56% | 941 hPa | - | - | 0 W/m² | - |
| 1777113727 | 32.78° C | 55% | 941 hPa | - | - | 0 W/m² | - |
| 1777112805 | 32.78° C | 56% | 941 hPa | - | - | 0 W/m² | - |
| 1777111883 | 32.78° C | 56% | 941 hPa | - | - | 0 W/m² | - |
| 1777110961 | 32.78° C | 55% | 940 hPa | - | - | 0 W/m² | - |
| 1777110039 | 33.33° C | 54% | 940 hPa | - | - | 0 W/m² | - |
| 1777109117 | 33.33° C | 52% | 940 hPa | - | - | 0 W/m² | - |
| 1777108195 | 31.67° C | 54% | 940 hPa | - | - | 0 W/m² | - |
| 1777107273 | 34.44° C | 51% | 940 hPa | - | - | 0 W/m² | - |
| 1777106351 | 34.44° C | 51% | 939 hPa | - | - | 0 W/m² | - |
* Rain since midnight (hover to see other rain measurements)
** Current wind speed in m/s (hover to see current wind gust speed)